Hauptseite
METAR-TAF:

METAR-TAF

Flughäfen :

Fliegerhorst Diepholz

Diepholz, Deutschland

Breite: 52-35N, Länge: 008-21E, Höhe: 39 m

Beobachtung

Neuester Wetterbericht von vor 52 Minuten, um 12:20 UTC
Wind 8 kt aus Nord/Nordwest
Temperatur 13°C
Luftfeuchtigkeit 54%
Luftdruck 1031 hPa
Sichtweite 10 km oder mehr
Aufgelockert bewölkt in der Höhe von 4200 ft

METAR: ETND 221220Z 34008KT 9999 SCT042 13/04 Q1031 BLU+BLU+

Zeit: 15:12 (13:12 UTC)

Prognose

Neuester Wetterbericht von vor 3 Stunden und 2 Minuten, um 10:10 UTC
Gültige Prognose vom 22 um 11 UTC bis 22 um 20 UTC
Wind 8 kt aus Nord
Sichtweite 10 km oder mehr
Aufgelockert bewölkt in der Höhe von 3000 ft

TAF: ETND 221010Z 2211/2220 35008KT 9999 NSW SCT030 BY ETGL

Wetterbeobachtungen und Prognosen von mehr als 4000 Flughäfen (METAR und TAF Bericht).

Die verfügbaren Stationen werden durch gelbe und rote Markierungen auf der Karte dargestellt.

Führen Sie die Maus auf sie, um den Namen der Station zu sehen.

Darauf klicken, um die Beobachtung von Wetterbeobachtungen und Prognosen zu sehen.

Um die Karte zu ändern : klicken Sie auf den grünen Tasten mit einem schwarzen Kreuz Zum Vergrößern, auf den grünen Button mit einem Gedankenstrich zu verkleinern, oder auf die grünen Pfeile für benachbarte Karten.


METAR-TAF: